sensor_id;sensor_type;location;lat;lon;timestamp;P1;durP1;ratioP1;P2;durP2;ratioP2
70144;SDS011;57510;51.068;3.872;2022-08-25T00:02:04;347.30;;;332.00;;
70144;SDS011;57510;51.068;3.872;2022-08-25T00:04:40;358.08;;;341.95;;
70144;SDS011;57510;51.068;3.872;2022-08-25T00:07:06;348.45;;;332.88;;
70144;SDS011;57510;51.068;3.872;2022-08-25T00:09:35;357.23;;;341.50;;
70144;SDS011;57510;51.068;3.872;2022-08-25T00:12:01;359.27;;;343.55;;
70144;SDS011;57510;51.068;3.872;2022-08-25T00:14:29;348.38;;;333.15;;
70144;SDS011;57510;51.068;3.872;2022-08-25T00:17:01;363.20;;;347.25;;
70144;SDS011;57510;51.068;3.872;2022-08-25T00:19:35;355.85;;;340.25;;
70144;SDS011;57510;51.068;3.872;2022-08-25T00:22:02;358.02;;;341.83;;
70144;SDS011;57510;51.068;3.872;2022-08-25T00:24:30;357.58;;;341.50;;
70144;SDS011;57510;51.068;3.872;2022-08-25T00:27:13;373.08;;;356.30;;
70144;SDS011;57510;51.068;3.872;2022-08-25T00:29:39;358.42;;;342.38;;
70144;SDS011;57510;51.068;3.872;2022-08-25T00:32:05;366.08;;;349.67;;
70144;SDS011;57510;51.068;3.872;2022-08-25T00:34:32;360.77;;;344.60;;
70144;SDS011;57510;51.068;3.872;2022-08-25T00:37:01;369.73;;;352.98;;
70144;SDS011;57510;51.068;3.872;2022-08-25T00:39:36;356.50;;;340.48;;
70144;SDS011;57510;51.068;3.872;2022-08-25T00:42:05;353.83;;;337.98;;
70144;SDS011;57510;51.068;3.872;2022-08-25T00:44:32;350.05;;;333.95;;
70144;SDS011;57510;51.068;3.872;2022-08-25T00:49:47;355.77;;;339.65;;
70144;SDS011;57510;51.068;3.872;2022-08-25T00:52:21;359.10;;;342.48;;
70144;SDS011;57510;51.068;3.872;2022-08-25T00:58:40;1999.90;;;999.90;;
70144;SDS011;57510;51.068;3.872;2022-08-25T01:03:25;1999.90;;;999.90;;
70144;SDS011;57510;51.068;3.872;2022-08-25T01:05:53;1999.90;;;999.90;;
70144;SDS011;57510;51.068;3.872;2022-08-25T01:08:37;1999.90;;;999.90;;
70144;SDS011;57510;51.068;3.872;2022-08-25T01:14:02;1999.90;;;999.90;;
70144;SDS011;57510;51.068;3.872;2022-08-25T01:16:34;1999.90;;;999.90;;
70144;SDS011;57510;51.068;3.872;2022-08-25T01:19:06;1999.90;;;999.90;;
70144;SDS011;57510;51.068;3.872;2022-08-25T01:21:44;1588.40;;;834.45;;
70144;SDS011;57510;51.068;3.872;2022-08-25T01:24:15;1999.90;;;999.90;;
70144;SDS011;57510;51.068;3.872;2022-08-25T01:27:01;1999.90;;;999.90;;
70144;SDS011;57510;51.068;3.872;2022-08-25T01:29:28;1999.90;;;999.90;;
70144;SDS011;57510;51.068;3.872;2022-08-25T01:32:03;1999.90;;;999.90;;
70144;SDS011;57510;51.068;3.872;2022-08-25T01:34:33;1999.90;;;999.90;;
70144;SDS011;57510;51.068;3.872;2022-08-25T01:37:00;1999.90;;;999.90;;
70144;SDS011;57510;51.068;3.872;2022-08-25T01:39:28;1184.70;;;676.28;;
70144;SDS011;57510;51.068;3.872;2022-08-25T01:44:28;1598.25;;;843.70;;
70144;SDS011;57510;51.068;3.872;2022-08-25T01:46:54;1999.90;;;999.90;;
70144;SDS011;57510;51.068;3.872;2022-08-25T01:49:28;1999.90;;;999.90;;
70144;SDS011;57510;51.068;3.872;2022-08-25T01:58:42;1999.90;;;999.90;;
70144;SDS011;57510;51.068;3.872;2022-08-25T02:01:12;1999.90;;;999.90;;
70144;SDS011;57510;51.068;3.872;2022-08-25T02:06:19;1999.90;;;999.90;;
70144;SDS011;57510;51.068;3.872;2022-08-25T02:11:45;1999.90;;;999.90;;
70144;SDS011;57510;51.068;3.872;2022-08-25T02:16:53;1999.90;;;999.90;;
70144;SDS011;57510;51.068;3.872;2022-08-25T02:22:29;1999.90;;;999.90;;
70144;SDS011;57510;51.068;3.872;2022-08-25T02:27:35;1999.90;;;999.90;;
70144;SDS011;57510;51.068;3.872;2022-08-25T02:30:02;1999.90;;;999.90;;
70144;SDS011;57510;51.068;3.872;2022-08-25T02:40:45;1999.90;;;999.90;;
70144;SDS011;57510;51.068;3.872;2022-08-25T02:43:11;1999.90;;;999.90;;
70144;SDS011;57510;51.068;3.872;2022-08-25T02:45:56;1999.90;;;999.90;;
70144;SDS011;57510;51.068;3.872;2022-08-25T02:48:25;1999.90;;;999.90;;
70144;SDS011;57510;51.068;3.872;2022-08-25T02:51:05;1999.90;;;999.90;;
70144;SDS011;57510;51.068;3.872;2022-08-25T02:53:39;1999.90;;;999.90;;
70144;SDS011;57510;51.068;3.872;2022-08-25T02:56:07;1999.90;;;999.90;;
70144;SDS011;57510;51.068;3.872;2022-08-25T03:01:20;1999.90;;;999.90;;
70144;SDS011;57510;51.068;3.872;2022-08-25T03:03:53;1999.90;;;999.90;;
70144;SDS011;57510;51.068;3.872;2022-08-25T03:06:19;1999.90;;;999.90;;
70144;SDS011;57510;51.068;3.872;2022-08-25T03:08:56;1999.90;;;999.90;;
70144;SDS011;57510;51.068;3.872;2022-08-25T03:11:28;1999.90;;;999.90;;
70144;SDS011;57510;51.068;3.872;2022-08-25T03:14:04;1999.90;;;999.90;;
70144;SDS011;57510;51.068;3.872;2022-08-25T03:16:31;1999.90;;;999.90;;
70144;SDS011;57510;51.068;3.872;2022-08-25T03:21:56;1999.90;;;999.90;;
70144;SDS011;57510;51.068;3.872;2022-08-25T03:24:24;1999.90;;;999.90;;
70144;SDS011;57510;51.068;3.872;2022-08-25T03:26:51;1999.90;;;999.90;;
70144;SDS011;57510;51.068;3.872;2022-08-25T03:31:57;1999.90;;;999.90;;
70144;SDS011;57510;51.068;3.872;2022-08-25T03:37:35;1999.90;;;999.90;;
70144;SDS011;57510;51.068;3.872;2022-08-25T03:40:03;1999.90;;;999.90;;
70144;SDS011;57510;51.068;3.872;2022-08-25T03:42:43;1999.90;;;999.90;;
70144;SDS011;57510;51.068;3.872;2022-08-25T03:45:16;1999.90;;;999.90;;
70144;SDS011;57510;51.068;3.872;2022-08-25T03:50:47;1999.90;;;999.90;;
70144;SDS011;57510;51.068;3.872;2022-08-25T03:58:48;1999.90;;;999.90;;
70144;SDS011;57510;51.068;3.872;2022-08-25T04:01:15;1999.90;;;999.90;;
70144;SDS011;57510;51.068;3.872;2022-08-25T04:06:43;1999.90;;;999.90;;
70144;SDS011;57510;51.068;3.872;2022-08-25T04:14:22;1999.90;;;999.90;;
70144;SDS011;57510;51.068;3.872;2022-08-25T04:27:29;1999.90;;;999.90;;
70144;SDS011;57510;51.068;3.872;2022-08-25T04:32:50;1999.90;;;999.90;;
70144;SDS011;57510;51.068;3.872;2022-08-25T04:35:21;1999.90;;;999.90;;
70144;SDS011;57510;51.068;3.872;2022-08-25T04:37:54;1999.90;;;999.90;;
70144;SDS011;57510;51.068;3.872;2022-08-25T04:40:24;1999.90;;;999.90;;
70144;SDS011;57510;51.068;3.872;2022-08-25T04:42:54;1999.90;;;999.90;;
70144;SDS011;57510;51.068;3.872;2022-08-25T04:48:16;1999.90;;;999.90;;
70144;SDS011;57510;51.068;3.872;2022-08-25T04:50:42;1999.90;;;999.90;;
70144;SDS011;57510;51.068;3.872;2022-08-25T04:53:08;1999.90;;;999.90;;
70144;SDS011;57510;51.068;3.872;2022-08-25T04:58:39;1999.90;;;999.90;;
70144;SDS011;57510;51.068;3.872;2022-08-25T05:01:08;1999.90;;;999.90;;
70144;SDS011;57510;51.068;3.872;2022-08-25T05:06:35;1999.90;;;999.90;;
70144;SDS011;57510;51.068;3.872;2022-08-25T05:09:12;1999.90;;;999.90;;
70144;SDS011;57510;51.068;3.872;2022-08-25T05:14:24;1999.90;;;999.90;;
70144;SDS011;57510;51.068;3.872;2022-08-25T05:16:49;1999.90;;;999.90;;
70144;SDS011;57510;51.068;3.872;2022-08-25T05:19:32;1999.90;;;999.90;;
70144;SDS011;57510;51.068;3.872;2022-08-25T05:22:04;1999.90;;;999.90;;
70144;SDS011;57510;51.068;3.872;2022-08-25T05:24:43;1999.90;;;999.90;;
70144;SDS011;57510;51.068;3.872;2022-08-25T05:30:09;1999.90;;;999.90;;
70144;SDS011;57510;51.068;3.872;2022-08-25T05:32:44;1999.90;;;999.90;;
70144;SDS011;57510;51.068;3.872;2022-08-25T05:35:15;1999.90;;;999.90;;
70144;SDS011;57510;51.068;3.872;2022-08-25T05:37:48;1999.90;;;999.90;;
70144;SDS011;57510;51.068;3.872;2022-08-25T05:40:14;1999.90;;;999.90;;
70144;SDS011;57510;51.068;3.872;2022-08-25T05:45:37;1999.90;;;999.90;;
70144;SDS011;57510;51.068;3.872;2022-08-25T05:48:03;1999.90;;;999.90;;
70144;SDS011;57510;51.068;3.872;2022-08-25T05:53:31;1999.90;;;999.90;;
70144;SDS011;57510;51.068;3.872;2022-08-25T05:55:59;1999.90;;;999.90;;
70144;SDS011;57510;51.068;3.872;2022-08-25T05:58:29;1999.90;;;999.90;;
70144;SDS011;57510;51.068;3.872;2022-08-25T06:00:56;1999.90;;;999.90;;
70144;SDS011;57510;51.068;3.872;2022-08-25T06:03:44;1999.90;;;999.90;;
70144;SDS011;57510;51.068;3.872;2022-08-25T06:06:15;1999.90;;;999.90;;
70144;SDS011;57510;51.068;3.872;2022-08-25T06:08:42;1999.90;;;999.90;;
70144;SDS011;57510;51.068;3.872;2022-08-25T06:11:09;1999.90;;;999.90;;
70144;SDS011;57510;51.068;3.872;2022-08-25T06:13:36;1999.90;;;999.90;;
70144;SDS011;57510;51.068;3.872;2022-08-25T06:16:03;1999.90;;;999.90;;
70144;SDS011;57510;51.068;3.872;2022-08-25T06:18:32;1999.90;;;999.90;;
70144;SDS011;57510;51.068;3.872;2022-08-25T06:20:58;1999.90;;;999.90;;
70144;SDS011;57510;51.068;3.872;2022-08-25T06:23:24;1999.90;;;999.90;;
70144;SDS011;57510;51.068;3.872;2022-08-25T06:25:50;1999.90;;;999.90;;
70144;SDS011;57510;51.068;3.872;2022-08-25T06:28:17;1999.90;;;999.90;;
70144;SDS011;57510;51.068;3.872;2022-08-25T06:30:44;1999.90;;;999.90;;
70144;SDS011;57510;51.068;3.872;2022-08-25T06:33:11;1999.90;;;999.90;;
70144;SDS011;57510;51.068;3.872;2022-08-25T06:35:39;1999.90;;;999.90;;
70144;SDS011;57510;51.068;3.872;2022-08-25T06:38:06;1999.90;;;999.90;;
70144;SDS011;57510;51.068;3.872;2022-08-25T06:40:31;1999.90;;;999.90;;
70144;SDS011;57510;51.068;3.872;2022-08-25T06:43:00;1999.90;;;999.90;;
70144;SDS011;57510;51.068;3.872;2022-08-25T06:45:26;1999.90;;;999.90;;
70144;SDS011;57510;51.068;3.872;2022-08-25T06:47:52;1999.90;;;999.90;;
70144;SDS011;57510;51.068;3.872;2022-08-25T06:50:18;1999.90;;;999.90;;
70144;SDS011;57510;51.068;3.872;2022-08-25T06:52:45;1999.90;;;999.90;;
70144;SDS011;57510;51.068;3.872;2022-08-25T06:55:11;1999.90;;;999.90;;
70144;SDS011;57510;51.068;3.872;2022-08-25T06:57:40;1999.90;;;999.90;;
70144;SDS011;57510;51.068;3.872;2022-08-25T07:00:06;1999.90;;;999.90;;
70144;SDS011;57510;51.068;3.872;2022-08-25T07:02:34;1999.90;;;999.90;;
70144;SDS011;57510;51.068;3.872;2022-08-25T07:05:02;1999.90;;;999.90;;
70144;SDS011;57510;51.068;3.872;2022-08-25T07:07:30;1999.90;;;999.90;;
70144;SDS011;57510;51.068;3.872;2022-08-25T07:09:57;1999.90;;;999.90;;
70144;SDS011;57510;51.068;3.872;2022-08-25T07:12:22;1999.90;;;999.90;;
70144;SDS011;57510;51.068;3.872;2022-08-25T07:14:49;1999.90;;;999.90;;
70144;SDS011;57510;51.068;3.872;2022-08-25T07:17:15;1999.90;;;999.90;;
70144;SDS011;57510;51.068;3.872;2022-08-25T07:19:41;1999.90;;;999.90;;
70144;SDS011;57510;51.068;3.872;2022-08-25T07:22:07;1999.90;;;999.90;;
70144;SDS011;57510;51.068;3.872;2022-08-25T07:24:33;1999.90;;;999.90;;
70144;SDS011;57510;51.068;3.872;2022-08-25T07:26:59;1999.90;;;999.90;;
70144;SDS011;57510;51.068;3.872;2022-08-25T07:29:26;1107.95;;;603.47;;
70144;SDS011;57510;51.068;3.872;2022-08-25T07:31:55;201.02;;;192.63;;
70144;SDS011;57510;51.068;3.872;2022-08-25T07:34:20;192.13;;;184.35;;
70144;SDS011;57510;51.068;3.872;2022-08-25T07:37:04;188.48;;;180.93;;
70144;SDS011;57510;51.068;3.872;2022-08-25T07:39:31;163.50;;;156.85;;
70144;SDS011;57510;51.068;3.872;2022-08-25T07:41:57;159.00;;;152.70;;
70144;SDS011;57510;51.068;3.872;2022-08-25T07:44:24;153.57;;;147.40;;
70144;SDS011;57510;51.068;3.872;2022-08-25T07:46:50;130.45;;;125.40;;
70144;SDS011;57510;51.068;3.872;2022-08-25T07:49:19;132.93;;;127.72;;
70144;SDS011;57510;51.068;3.872;2022-08-25T07:51:48;131.98;;;126.93;;
70144;SDS011;57510;51.068;3.872;2022-08-25T07:54:18;118.03;;;113.35;;
70144;SDS011;57510;51.068;3.872;2022-08-25T07:56:44;119.25;;;114.65;;
70144;SDS011;57510;51.068;3.872;2022-08-25T07:59:10;121.10;;;116.45;;
70144;SDS011;57510;51.068;3.872;2022-08-25T08:01:37;120.50;;;115.70;;
70144;SDS011;57510;51.068;3.872;2022-08-25T08:04:04;111.95;;;107.72;;
70144;SDS011;57510;51.068;3.872;2022-08-25T08:06:30;117.68;;;113.32;;
70144;SDS011;57510;51.068;3.872;2022-08-25T08:08:56;118.75;;;114.15;;
70144;SDS011;57510;51.068;3.872;2022-08-25T08:11:25;117.30;;;112.78;;
70144;SDS011;57510;51.068;3.872;2022-08-25T08:13:54;111.65;;;107.35;;
70144;SDS011;57510;51.068;3.872;2022-08-25T08:16:22;109.18;;;105.07;;
70144;SDS011;57510;51.068;3.872;2022-08-25T08:18:50;105.85;;;101.95;;
70144;SDS011;57510;51.068;3.872;2022-08-25T08:21:18;101.70;;;97.97;;
70144;SDS011;57510;51.068;3.872;2022-08-25T08:23:46;95.78;;;92.13;;
70144;SDS011;57510;51.068;3.872;2022-08-25T08:26:13;98.35;;;94.63;;
70144;SDS011;57510;51.068;3.872;2022-08-25T08:28:39;98.53;;;94.75;;
70144;SDS011;57510;51.068;3.872;2022-08-25T08:31:04;101.90;;;98.25;;
70144;SDS011;57510;51.068;3.872;2022-08-25T08:33:30;104.78;;;100.75;;
70144;SDS011;57510;51.068;3.872;2022-08-25T08:35:58;108.03;;;104.15;;
70144;SDS011;57510;51.068;3.872;2022-08-25T08:38:27;110.68;;;106.38;;
70144;SDS011;57510;51.068;3.872;2022-08-25T08:41:10;125.47;;;120.88;;
70144;SDS011;57510;51.068;3.872;2022-08-25T08:52:10;141.88;;;136.93;;
70144;SDS011;57510;51.068;3.872;2022-08-25T08:54:41;130.70;;;125.90;;
70144;SDS011;57510;51.068;3.872;2022-08-25T08:57:14;122.40;;;118.00;;
70144;SDS011;57510;51.068;3.872;2022-08-25T08:59:54;144.05;;;138.88;;
70144;SDS011;57510;51.068;3.872;2022-08-25T09:02:32;144.75;;;139.55;;
70144;SDS011;57510;51.068;3.872;2022-08-25T09:05:12;153.65;;;148.10;;
70144;SDS011;57510;51.068;3.872;2022-08-25T09:08:02;132.07;;;127.32;;
70144;SDS011;57510;51.068;3.872;2022-08-25T09:10:32;129.00;;;124.25;;
70144;SDS011;57510;51.068;3.872;2022-08-25T09:13:49;126.65;;;122.18;;
70144;SDS011;57510;51.068;3.872;2022-08-25T09:21:34;119.15;;;114.70;;
70144;SDS011;57510;51.068;3.872;2022-08-25T09:24:20;122.75;;;118.28;;
70144;SDS011;57510;51.068;3.872;2022-08-25T09:30:15;134.32;;;129.20;;
70144;SDS011;57510;51.068;3.872;2022-08-25T09:32:47;143.10;;;137.52;;
70144;SDS011;57510;51.068;3.872;2022-08-25T09:35:29;119.13;;;114.43;;
70144;SDS011;57510;51.068;3.872;2022-08-25T09:37:57;125.18;;;120.55;;
70144;SDS011;57510;51.068;3.872;2022-08-25T09:40:29;117.25;;;112.93;;
70144;SDS011;57510;51.068;3.872;2022-08-25T09:42:57;109.45;;;105.30;;
70144;SDS011;57510;51.068;3.872;2022-08-25T09:45:41;95.18;;;91.70;;
70144;SDS011;57510;51.068;3.872;2022-08-25T09:48:19;89.55;;;86.25;;
70144;SDS011;57510;51.068;3.872;2022-08-25T09:50:49;92.68;;;89.13;;
70144;SDS011;57510;51.068;3.872;2022-08-25T09:53:26;85.18;;;81.75;;
70144;SDS011;57510;51.068;3.872;2022-08-25T09:56:03;81.53;;;78.47;;
70144;SDS011;57510;51.068;3.872;2022-08-25T09:58:31;82.95;;;79.75;;
70144;SDS011;57510;51.068;3.872;2022-08-25T10:01:02;95.15;;;91.70;;
70144;SDS011;57510;51.068;3.872;2022-08-25T10:03:37;89.63;;;86.25;;
70144;SDS011;57510;51.068;3.872;2022-08-25T10:06:18;89.82;;;86.63;;
70144;SDS011;57510;51.068;3.872;2022-08-25T10:11:27;73.57;;;70.95;;
70144;SDS011;57510;51.068;3.872;2022-08-25T10:16:52;84.95;;;81.95;;
70144;SDS011;57510;51.068;3.872;2022-08-25T10:19:40;83.50;;;80.40;;
70144;SDS011;57510;51.068;3.872;2022-08-25T10:24:37;85.35;;;82.15;;
70144;SDS011;57510;51.068;3.872;2022-08-25T10:27:11;73.95;;;71.20;;
70144;SDS011;57510;51.068;3.872;2022-08-25T10:35:33;92.32;;;88.97;;
70144;SDS011;57510;51.068;3.872;2022-08-25T10:40:47;92.40;;;89.00;;
70144;SDS011;57510;51.068;3.872;2022-08-25T10:43:31;83.95;;;80.80;;
70144;SDS011;57510;51.068;3.872;2022-08-25T10:51:20;87.53;;;84.13;;
70144;SDS011;57510;51.068;3.872;2022-08-25T10:56:21;85.32;;;82.22;;
70144;SDS011;57510;51.068;3.872;2022-08-25T11:01:29;84.70;;;81.50;;
70144;SDS011;57510;51.068;3.872;2022-08-25T11:04:02;76.72;;;73.88;;
70144;SDS011;57510;51.068;3.872;2022-08-25T11:06:47;77.25;;;74.20;;
70144;SDS011;57510;51.068;3.872;2022-08-25T11:09:21;78.35;;;75.55;;
70144;SDS011;57510;51.068;3.872;2022-08-25T11:12:01;77.82;;;75.03;;
70144;SDS011;57510;51.068;3.872;2022-08-25T11:14:33;84.47;;;81.07;;
70144;SDS011;57510;51.068;3.872;2022-08-25T11:17:16;88.57;;;85.45;;
70144;SDS011;57510;51.068;3.872;2022-08-25T11:19:49;94.85;;;91.40;;
70144;SDS011;57510;51.068;3.872;2022-08-25T11:25:42;109.47;;;105.60;;
70144;SDS011;57510;51.068;3.872;2022-08-25T11:28:15;116.93;;;112.93;;
70144;SDS011;57510;51.068;3.872;2022-08-25T11:30:51;109.07;;;105.25;;
70144;SDS011;57510;51.068;3.872;2022-08-25T11:33:21;131.18;;;126.57;;
70144;SDS011;57510;51.068;3.872;2022-08-25T11:35:49;161.25;;;155.25;;
70144;SDS011;57510;51.068;3.872;2022-08-25T12:00:55;108.18;;;104.25;;
70144;SDS011;57510;51.068;3.872;2022-08-25T12:08:52;104.85;;;101.07;;
70144;SDS011;57510;51.068;3.872;2022-08-25T12:17:05;110.80;;;106.80;;
70144;SDS011;57510;51.068;3.872;2022-08-25T12:27:53;110.40;;;105.95;;
70144;SDS011;57510;51.068;3.872;2022-08-25T12:35:30;106.75;;;102.47;;
70144;SDS011;57510;51.068;3.872;2022-08-25T12:38:07;112.35;;;108.03;;
70144;SDS011;57510;51.068;3.872;2022-08-25T12:43:09;109.20;;;105.07;;
70144;SDS011;57510;51.068;3.872;2022-08-25T12:45:47;116.82;;;112.35;;
70144;SDS011;57510;51.068;3.872;2022-08-25T12:50:56;111.22;;;106.88;;
70144;SDS011;57510;51.068;3.872;2022-08-25T12:56:09;113.82;;;109.53;;
70144;SDS011;57510;51.068;3.872;2022-08-25T12:58:54;106.20;;;101.70;;
70144;SDS011;57510;51.068;3.872;2022-08-25T13:01:40;106.38;;;102.22;;
70144;SDS011;57510;51.068;3.872;2022-08-25T13:09:32;105.15;;;100.78;;
70144;SDS011;57510;51.068;3.872;2022-08-25T13:14:55;103.60;;;99.53;;
70144;SDS011;57510;51.068;3.872;2022-08-25T13:17:33;99.72;;;95.72;;
70144;SDS011;57510;51.068;3.872;2022-08-25T13:20:21;114.07;;;109.18;;
70144;SDS011;57510;51.068;3.872;2022-08-25T13:22:49;111.30;;;106.65;;
70144;SDS011;57510;51.068;3.872;2022-08-25T13:25:18;108.50;;;103.90;;
70144;SDS011;57510;51.068;3.872;2022-08-25T13:27:50;112.65;;;107.88;;
70144;SDS011;57510;51.068;3.872;2022-08-25T13:30:21;114.55;;;109.47;;
70144;SDS011;57510;51.068;3.872;2022-08-25T13:32:49;109.20;;;104.60;;
70144;SDS011;57510;51.068;3.872;2022-08-25T13:35:20;112.70;;;108.00;;
70144;SDS011;57510;51.068;3.872;2022-08-25T13:37:48;108.72;;;103.88;;
70144;SDS011;57510;51.068;3.872;2022-08-25T13:40:21;105.75;;;101.35;;
70144;SDS011;57510;51.068;3.872;2022-08-25T13:42:53;110.80;;;105.90;;
70144;SDS011;57510;51.068;3.872;2022-08-25T13:45:23;105.03;;;100.28;;
70144;SDS011;57510;51.068;3.872;2022-08-25T13:47:53;109.95;;;104.93;;
70144;SDS011;57510;51.068;3.872;2022-08-25T13:52:53;107.35;;;102.78;;
70144;SDS011;57510;51.068;3.872;2022-08-25T13:55:24;106.45;;;101.75;;
70144;SDS011;57510;51.068;3.872;2022-08-25T13:58:02;107.15;;;102.43;;
70144;SDS011;57510;51.068;3.872;2022-08-25T14:00:33;105.18;;;100.75;;
70144;SDS011;57510;51.068;3.872;2022-08-25T14:03:16;104.45;;;100.13;;
70144;SDS011;57510;51.068;3.872;2022-08-25T14:06:04;99.43;;;95.10;;
70144;SDS011;57510;51.068;3.872;2022-08-25T14:08:46;105.00;;;100.07;;
70144;SDS011;57510;51.068;3.872;2022-08-25T14:11:27;101.05;;;96.18;;
70144;SDS011;57510;51.068;3.872;2022-08-25T14:14:30;94.03;;;89.70;;
70144;SDS011;57510;51.068;3.872;2022-08-25T14:16:50;101.55;;;96.57;;
70144;SDS011;57510;51.068;3.872;2022-08-25T14:19:20;97.22;;;92.60;;
70144;SDS011;57510;51.068;3.872;2022-08-25T14:21:47;96.50;;;92.10;;
70144;SDS011;57510;51.068;3.872;2022-08-25T14:24:15;96.70;;;92.13;;
70144;SDS011;57510;51.068;3.872;2022-08-25T14:26:42;96.88;;;91.88;;
70144;SDS011;57510;51.068;3.872;2022-08-25T14:29:09;93.60;;;88.85;;
70144;SDS011;57510;51.068;3.872;2022-08-25T14:31:36;89.40;;;85.03;;
70144;SDS011;57510;51.068;3.872;2022-08-25T14:34:14;91.82;;;87.20;;
70144;SDS011;57510;51.068;3.872;2022-08-25T14:36:46;93.63;;;88.35;;
70144;SDS011;57510;51.068;3.872;2022-08-25T14:39:14;98.60;;;94.05;;
70144;SDS011;57510;51.068;3.872;2022-08-25T14:41:40;104.22;;;99.45;;
70144;SDS011;57510;51.068;3.872;2022-08-25T14:44:08;109.38;;;104.53;;
70144;SDS011;57510;51.068;3.872;2022-08-25T14:46:40;106.90;;;102.05;;
70144;SDS011;57510;51.068;3.872;2022-08-25T14:49:10;99.68;;;95.35;;
70144;SDS011;57510;51.068;3.872;2022-08-25T14:51:40;113.03;;;108.35;;
70144;SDS011;57510;51.068;3.872;2022-08-25T14:54:09;124.72;;;119.50;;
70144;SDS011;57510;51.068;3.872;2022-08-25T14:56:39;131.40;;;126.20;;
70144;SDS011;57510;51.068;3.872;2022-08-25T14:59:05;124.75;;;119.80;;
70144;SDS011;57510;51.068;3.872;2022-08-25T15:01:31;139.98;;;134.32;;
70144;SDS011;57510;51.068;3.872;2022-08-25T15:04:00;123.13;;;118.13;;
70144;SDS011;57510;51.068;3.872;2022-08-25T15:11:50;92.57;;;88.82;;
70144;SDS011;57510;51.068;3.872;2022-08-25T15:14:18;97.10;;;93.13;;
70144;SDS011;57510;51.068;3.872;2022-08-25T15:17:04;98.70;;;94.40;;
70144;SDS011;57510;51.068;3.872;2022-08-25T15:19:31;112.03;;;107.20;;
70144;SDS011;57510;51.068;3.872;2022-08-25T15:21:58;120.28;;;115.22;;
70144;SDS011;57510;51.068;3.872;2022-08-25T15:24:26;107.45;;;102.97;;
70144;SDS011;57510;51.068;3.872;2022-08-25T15:26:54;120.25;;;115.35;;
70144;SDS011;57510;51.068;3.872;2022-08-25T15:29:22;115.13;;;110.43;;
70144;SDS011;57510;51.068;3.872;2022-08-25T15:31:49;96.03;;;91.72;;
70144;SDS011;57510;51.068;3.872;2022-08-25T15:34:17;83.25;;;79.57;;
70144;SDS011;57510;51.068;3.872;2022-08-25T15:36:43;85.88;;;81.90;;
70144;SDS011;57510;51.068;3.872;2022-08-25T15:39:09;87.30;;;83.53;;
70144;SDS011;57510;51.068;3.872;2022-08-25T15:41:35;90.40;;;86.38;;
70144;SDS011;57510;51.068;3.872;2022-08-25T15:44:02;86.22;;;82.57;;
70144;SDS011;57510;51.068;3.872;2022-08-25T15:46:30;87.28;;;83.45;;
70144;SDS011;57510;51.068;3.872;2022-08-25T15:48:57;88.97;;;85.13;;
70144;SDS011;57510;51.068;3.872;2022-08-25T15:51:24;88.85;;;84.93;;
70144;SDS011;57510;51.068;3.872;2022-08-25T15:53:50;90.55;;;86.53;;
70144;SDS011;57510;51.068;3.872;2022-08-25T15:56:16;88.47;;;84.28;;
70144;SDS011;57510;51.068;3.872;2022-08-25T15:58:43;87.05;;;83.35;;
70144;SDS011;57510;51.068;3.872;2022-08-25T16:01:21;89.47;;;85.43;;
70144;SDS011;57510;51.068;3.872;2022-08-25T16:03:49;89.88;;;85.60;;
70144;SDS011;57510;51.068;3.872;2022-08-25T16:06:15;95.18;;;90.85;;
70144;SDS011;57510;51.068;3.872;2022-08-25T16:08:41;88.75;;;84.85;;
70144;SDS011;57510;51.068;3.872;2022-08-25T16:11:18;86.70;;;82.93;;
70144;SDS011;57510;51.068;3.872;2022-08-25T16:13:48;88.10;;;83.88;;
70144;SDS011;57510;51.068;3.872;2022-08-25T16:16:16;89.93;;;85.78;;
70144;SDS011;57510;51.068;3.872;2022-08-25T16:18:43;109.50;;;104.68;;
70144;SDS011;57510;51.068;3.872;2022-08-25T16:21:10;97.03;;;92.88;;
70144;SDS011;57510;51.068;3.872;2022-08-25T16:23:38;90.15;;;86.03;;
70144;SDS011;57510;51.068;3.872;2022-08-25T16:26:05;92.25;;;88.13;;
70144;SDS011;57510;51.068;3.872;2022-08-25T16:28:34;95.32;;;91.35;;
70144;SDS011;57510;51.068;3.872;2022-08-25T16:31:02;90.57;;;86.38;;
70144;SDS011;57510;51.068;3.872;2022-08-25T16:33:31;94.80;;;90.72;;
70144;SDS011;57510;51.068;3.872;2022-08-25T16:36:11;113.65;;;108.65;;
70144;SDS011;57510;51.068;3.872;2022-08-25T16:38:39;127.65;;;122.55;;
70144;SDS011;57510;51.068;3.872;2022-08-25T16:41:14;142.25;;;136.45;;
70144;SDS011;57510;51.068;3.872;2022-08-25T16:43:43;156.30;;;149.95;;
70144;SDS011;57510;51.068;3.872;2022-08-25T16:46:10;158.13;;;151.98;;
70144;SDS011;57510;51.068;3.872;2022-08-25T16:48:37;171.02;;;164.10;;
70144;SDS011;57510;51.068;3.872;2022-08-25T16:51:05;163.05;;;156.65;;
70144;SDS011;57510;51.068;3.872;2022-08-25T16:53:32;190.20;;;183.00;;
70144;SDS011;57510;51.068;3.872;2022-08-25T16:56:16;199.30;;;191.60;;
70144;SDS011;57510;51.068;3.872;2022-08-25T16:58:42;201.50;;;193.50;;
70144;SDS011;57510;51.068;3.872;2022-08-25T17:01:11;181.15;;;173.90;;
70144;SDS011;57510;51.068;3.872;2022-08-25T17:03:37;186.05;;;178.45;;
70144;SDS011;57510;51.068;3.872;2022-08-25T17:06:07;182.95;;;175.65;;
70144;SDS011;57510;51.068;3.872;2022-08-25T17:08:34;168.90;;;162.32;;
70144;SDS011;57510;51.068;3.872;2022-08-25T17:11:09;161.57;;;155.18;;
70144;SDS011;57510;51.068;3.872;2022-08-25T17:13:40;153.93;;;147.98;;
70144;SDS011;57510;51.068;3.872;2022-08-25T17:16:08;146.57;;;140.70;;
70144;SDS011;57510;51.068;3.872;2022-08-25T17:18:47;136.18;;;130.57;;
70144;SDS011;57510;51.068;3.872;2022-08-25T17:21:20;129.23;;;124.22;;
70144;SDS011;57510;51.068;3.872;2022-08-25T17:26:18;119.28;;;114.68;;
70144;SDS011;57510;51.068;3.872;2022-08-25T17:28:51;114.68;;;109.90;;
70144;SDS011;57510;51.068;3.872;2022-08-25T17:31:19;105.38;;;101.13;;
70144;SDS011;57510;51.068;3.872;2022-08-25T17:33:53;105.82;;;101.55;;
70144;SDS011;57510;51.068;3.872;2022-08-25T17:36:19;109.55;;;105.00;;
70144;SDS011;57510;51.068;3.872;2022-08-25T17:38:52;102.75;;;98.22;;
70144;SDS011;57510;51.068;3.872;2022-08-25T17:43:59;104.60;;;100.30;;
70144;SDS011;57510;51.068;3.872;2022-08-25T17:46:25;106.85;;;102.45;;
70144;SDS011;57510;51.068;3.872;2022-08-25T17:48:52;108.82;;;104.10;;
70144;SDS011;57510;51.068;3.872;2022-08-25T17:51:18;115.97;;;111.63;;
70144;SDS011;57510;51.068;3.872;2022-08-25T17:56:18;122.57;;;117.75;;
70144;SDS011;57510;51.068;3.872;2022-08-25T17:58:50;132.32;;;127.15;;
70144;SDS011;57510;51.068;3.872;2022-08-25T18:03:59;139.20;;;133.93;;
70144;SDS011;57510;51.068;3.872;2022-08-25T18:06:31;142.95;;;137.77;;
70144;SDS011;57510;51.068;3.872;2022-08-25T18:08:57;149.57;;;143.93;;
70144;SDS011;57510;51.068;3.872;2022-08-25T18:11:23;152.55;;;146.75;;
70144;SDS011;57510;51.068;3.872;2022-08-25T18:13:52;163.15;;;157.27;;